sensor_id;sensor_type;location;lat;lon;timestamp;P1;durP1;ratioP1;P2;durP2;ratioP2
56680;SDS011;42558;52.388;13.390;2022-12-05T00:00:07;158.08;;;53.77;;
56680;SDS011;42558;52.388;13.390;2022-12-05T00:02:37;152.38;;;50.54;;
56680;SDS011;42558;52.388;13.390;2022-12-05T00:05:10;154.28;;;51.87;;
56680;SDS011;42558;52.388;13.390;2022-12-05T00:07:40;127.11;;;48.07;;
56680;SDS011;42558;52.388;13.390;2022-12-05T00:10:10;188.29;;;60.04;;
56680;SDS011;42558;52.388;13.390;2022-12-05T00:12:40;156.94;;;53.39;;
56680;SDS011;42558;52.388;13.390;2022-12-05T00:15:10;123.50;;;47.12;;
56680;SDS011;42558;52.388;13.390;2022-12-05T00:17:41;158.65;;;53.96;;
56680;SDS011;42558;52.388;13.390;2022-12-05T00:20:11;155.80;;;54.53;;
56680;SDS011;42558;52.388;13.390;2022-12-05T00:22:41;169.10;;;57.00;;
56680;SDS011;42558;52.388;13.390;2022-12-05T00:25:12;167.39;;;55.86;;
56680;SDS011;42558;52.388;13.390;2022-12-05T00:27:42;158.46;;;53.39;;
56680;SDS011;42558;52.388;13.390;2022-12-05T00:30:12;134.52;;;50.16;;
56680;SDS011;42558;52.388;13.390;2022-12-05T00:32:41;155.99;;;52.44;;
56680;SDS011;42558;52.388;13.390;2022-12-05T00:35:11;141.17;;;52.25;;
56680;SDS011;42558;52.388;13.390;2022-12-05T00:37:41;157.13;;;54.53;;
56680;SDS011;42558;52.388;13.390;2022-12-05T00:40:11;157.89;;;52.06;;
56680;SDS011;42558;52.388;13.390;2022-12-05T00:42:41;127.87;;;46.17;;
56680;SDS011;42558;52.388;13.390;2022-12-05T00:45:17;143.45;;;51.87;;
56680;SDS011;42558;52.388;13.390;2022-12-05T00:47:47;139.46;;;48.64;;
56680;SDS011;42558;52.388;13.390;2022-12-05T00:50:17;144.97;;;49.02;;
56680;SDS011;42558;52.388;13.390;2022-12-05T00:52:47;165.68;;;54.34;;
56680;SDS011;42558;52.388;13.390;2022-12-05T00:55:17;157.51;;;52.06;;
56680;SDS011;42558;52.388;13.390;2022-12-05T00:57:47;144.40;;;49.59;;
56680;SDS011;42558;52.388;13.390;2022-12-05T01:00:18;152.19;;;52.63;;
56680;SDS011;42558;52.388;13.390;2022-12-05T01:02:48;143.26;;;50.92;;
56680;SDS011;42558;52.388;13.390;2022-12-05T01:05:18;146.68;;;53.39;;
56680;SDS011;42558;52.388;13.390;2022-12-05T01:07:47;183.35;;;57.38;;
56680;SDS011;42558;52.388;13.390;2022-12-05T01:10:17;164.73;;;49.21;;
56680;SDS011;42558;52.388;13.390;2022-12-05T01:12:47;169.86;;;54.34;;
56680;SDS011;42558;52.388;13.390;2022-12-05T01:15:17;138.51;;;50.92;;
56680;SDS011;42558;52.388;13.390;2022-12-05T01:17:47;145.35;;;49.78;;
56680;SDS011;42558;52.388;13.390;2022-12-05T01:20:17;161.12;;;51.87;;
56680;SDS011;42558;52.388;13.390;2022-12-05T01:22:47;142.69;;;50.16;;
56680;SDS011;42558;52.388;13.390;2022-12-05T01:25:17;145.92;;;51.68;;
56680;SDS011;42558;52.388;13.390;2022-12-05T01:27:45;155.42;;;53.96;;
56680;SDS011;42558;52.388;13.390;2022-12-05T01:30:13;162.45;;;52.25;;
56680;SDS011;42558;52.388;13.390;2022-12-05T01:32:42;169.10;;;57.19;;
56680;SDS011;42558;52.388;13.390;2022-12-05T01:35:10;192.85;;;59.47;;
56680;SDS011;42558;52.388;13.390;2022-12-05T01:37:39;178.60;;;57.38;;
56680;SDS011;42558;52.388;13.390;2022-12-05T01:40:07;146.30;;;52.06;;
56680;SDS011;42558;52.388;13.390;2022-12-05T01:42:35;163.97;;;53.39;;
56680;SDS011;42558;52.388;13.390;2022-12-05T01:45:14;155.61;;;51.68;;
56680;SDS011;42558;52.388;13.390;2022-12-05T01:47:46;167.39;;;55.10;;
56680;SDS011;42558;52.388;13.390;2022-12-05T01:50:16;148.39;;;51.68;;
56680;SDS011;42558;52.388;13.390;2022-12-05T01:52:46;148.01;;;51.11;;
56680;SDS011;42558;52.388;13.390;2022-12-05T01:55:17;153.90;;;52.25;;
56680;SDS011;42558;52.388;13.390;2022-12-05T01:57:48;153.14;;;50.16;;
56680;SDS011;42558;52.388;13.390;2022-12-05T02:00:19;156.56;;;53.58;;
56680;SDS011;42558;52.388;13.390;2022-12-05T02:02:53;143.45;;;52.44;;
56680;SDS011;42558;52.388;13.390;2022-12-05T02:05:29;138.32;;;49.59;;
56680;SDS011;42558;52.388;13.390;2022-12-05T02:08:03;120.46;;;43.89;;
56680;SDS011;42558;52.388;13.390;2022-12-05T02:10:48;153.14;;;53.01;;
56680;SDS011;42558;52.388;13.390;2022-12-05T02:19:22;133.95;;;47.69;;
56680;SDS011;42558;52.388;13.390;2022-12-05T02:32:03;127.30;;;45.03;;
56680;SDS011;42558;52.388;13.390;2022-12-05T02:43:43;136.04;;;49.02;;
56680;SDS011;42558;52.388;13.390;2022-12-05T02:46:21;133.00;;;47.88;;
56680;SDS011;42558;52.388;13.390;2022-12-05T02:48:56;136.61;;;51.11;;
56680;SDS011;42558;52.388;13.390;2022-12-05T02:51:35;165.30;;;55.86;;
56680;SDS011;42558;52.388;13.390;2022-12-05T02:54:14;109.25;;;40.85;;
56680;SDS011;42558;52.388;13.390;2022-12-05T02:56:48;125.97;;;45.79;;
56680;SDS011;42558;52.388;13.390;2022-12-05T02:59:19;121.98;;;45.03;;
56680;SDS011;42558;52.388;13.390;2022-12-05T03:01:52;111.91;;;43.70;;
56680;SDS011;42558;52.388;13.390;2022-12-05T03:04:23;109.06;;;44.08;;
56680;SDS011;42558;52.388;13.390;2022-12-05T03:07:08;128.82;;;47.88;;
56680;SDS011;42558;52.388;13.390;2022-12-05T03:10:02;129.39;;;45.22;;
56680;SDS011;42558;52.388;13.390;2022-12-05T03:12:46;104.69;;;40.85;;
56680;SDS011;42558;52.388;13.390;2022-12-05T03:15:27;102.41;;;41.42;;
56680;SDS011;42558;52.388;13.390;2022-12-05T03:18:15;120.27;;;41.80;;
56680;SDS011;42558;52.388;13.390;2022-12-05T03:24:09;124.07;;;46.55;;
56680;SDS011;42558;52.388;13.390;2022-12-05T03:27:20;116.28;;;43.89;;
56680;SDS011;42558;52.388;13.390;2022-12-05T03:30:09;109.82;;;43.32;;
56680;SDS011;42558;52.388;13.390;2022-12-05T03:32:57;101.27;;;42.18;;
56680;SDS011;42558;52.388;13.390;2022-12-05T03:36:01;114.95;;;41.23;;
56680;SDS011;42558;52.388;13.390;2022-12-05T03:38:35;118.94;;;41.80;;
56680;SDS011;42558;52.388;13.390;2022-12-05T03:41:34;92.72;;;36.29;;
56680;SDS011;42558;52.388;13.390;2022-12-05T03:44:50;119.51;;;44.46;;
56680;SDS011;42558;52.388;13.390;2022-12-05T03:50:02;107.16;;;40.66;;
56680;SDS011;42558;52.388;13.390;2022-12-05T03:52:44;101.08;;;38.57;;
56680;SDS011;42558;52.388;13.390;2022-12-05T03:55:39;101.46;;;41.04;;
56680;SDS011;42558;52.388;13.390;2022-12-05T03:58:25;95.38;;;38.19;;
56680;SDS011;42558;52.388;13.390;2022-12-05T04:01:00;99.75;;;39.14;;
56680;SDS011;42558;52.388;13.390;2022-12-05T04:03:42;97.66;;;39.33;;
56680;SDS011;42558;52.388;13.390;2022-12-05T04:06:25;103.93;;;39.90;;
56680;SDS011;42558;52.388;13.390;2022-12-05T04:09:10;99.56;;;41.99;;
56680;SDS011;42558;52.388;13.390;2022-12-05T04:11:52;99.56;;;38.95;;
56680;SDS011;42558;52.388;13.390;2022-12-05T04:14:34;93.86;;;35.72;;
56680;SDS011;42558;52.388;13.390;2022-12-05T04:17:32;99.18;;;40.85;;
56680;SDS011;42558;52.388;13.390;2022-12-05T04:23:23;82.46;;;35.15;;
56680;SDS011;42558;52.388;13.390;2022-12-05T04:26:19;85.88;;;33.25;;
56680;SDS011;42558;52.388;13.390;2022-12-05T04:29:00;84.17;;;35.34;;
56680;SDS011;42558;52.388;13.390;2022-12-05T04:31:42;90.44;;;37.43;;
56680;SDS011;42558;52.388;13.390;2022-12-05T04:34:14;68.40;;;27.93;;
56680;SDS011;42558;52.388;13.390;2022-12-05T04:37:06;87.78;;;39.71;;
56680;SDS011;42558;52.388;13.390;2022-12-05T04:39:51;85.50;;;36.48;;
56680;SDS011;42558;52.388;13.390;2022-12-05T04:42:28;86.26;;;35.15;;
56680;SDS011;42558;52.388;13.390;2022-12-05T04:45:05;98.80;;;38.57;;
56680;SDS011;42558;52.388;13.390;2022-12-05T04:47:42;90.63;;;34.96;;
56680;SDS011;42558;52.388;13.390;2022-12-05T04:50:19;84.36;;;36.29;;
56680;SDS011;42558;52.388;13.390;2022-12-05T04:52:54;90.06;;;36.86;;
56680;SDS011;42558;52.388;13.390;2022-12-05T04:55:26;86.64;;;35.15;;
56680;SDS011;42558;52.388;13.390;2022-12-05T04:58:13;76.57;;;34.39;;
56680;SDS011;42558;52.388;13.390;2022-12-05T05:06:39;85.31;;;33.82;;
56680;SDS011;42558;52.388;13.390;2022-12-05T05:09:10;76.57;;;31.92;;
56680;SDS011;42558;52.388;13.390;2022-12-05T05:11:40;81.51;;;32.87;;
56680;SDS011;42558;52.388;13.390;2022-12-05T05:14:10;73.91;;;32.30;;
56680;SDS011;42558;52.388;13.390;2022-12-05T05:16:41;76.57;;;31.73;;
56680;SDS011;42558;52.388;13.390;2022-12-05T05:19:11;75.05;;;33.06;;
56680;SDS011;42558;52.388;13.390;2022-12-05T05:21:41;68.40;;;30.40;;
56680;SDS011;42558;52.388;13.390;2022-12-05T05:24:11;68.78;;;32.49;;
56680;SDS011;42558;52.388;13.390;2022-12-05T05:26:43;76.19;;;31.73;;
56680;SDS011;42558;52.388;13.390;2022-12-05T05:29:12;75.62;;;32.87;;
56680;SDS011;42558;52.388;13.390;2022-12-05T05:31:43;68.78;;;26.79;;
56680;SDS011;42558;52.388;13.390;2022-12-05T05:34:13;72.20;;;30.21;;
56680;SDS011;42558;52.388;13.390;2022-12-05T05:36:43;68.02;;;31.35;;
56680;SDS011;42558;52.388;13.390;2022-12-05T05:39:13;70.11;;;32.68;;
56680;SDS011;42558;52.388;13.390;2022-12-05T05:41:44;64.03;;;30.40;;
56680;SDS011;42558;52.388;13.390;2022-12-05T05:44:13;64.60;;;30.02;;
56680;SDS011;42558;52.388;13.390;2022-12-05T05:46:43;66.88;;;32.30;;
56680;SDS011;42558;52.388;13.390;2022-12-05T05:49:13;72.20;;;30.78;;
56680;SDS011;42558;52.388;13.390;2022-12-05T05:51:43;67.45;;;29.45;;
56680;SDS011;42558;52.388;13.390;2022-12-05T05:54:13;67.83;;;30.40;;
56680;SDS011;42558;52.388;13.390;2022-12-05T05:56:43;68.02;;;31.73;;
56680;SDS011;42558;52.388;13.390;2022-12-05T05:59:13;58.33;;;26.60;;
56680;SDS011;42558;52.388;13.390;2022-12-05T06:01:43;66.12;;;30.21;;
56680;SDS011;42558;52.388;13.390;2022-12-05T06:04:13;59.85;;;27.17;;
56680;SDS011;42558;52.388;13.390;2022-12-05T06:06:42;67.45;;;27.93;;
56680;SDS011;42558;52.388;13.390;2022-12-05T06:09:12;57.95;;;27.74;;
56680;SDS011;42558;52.388;13.390;2022-12-05T06:11:39;57.19;;;26.22;;
56680;SDS011;42558;52.388;13.390;2022-12-05T06:14:07;66.69;;;30.21;;
56680;SDS011;42558;52.388;13.390;2022-12-05T06:16:38;58.14;;;29.64;;
56680;SDS011;42558;52.388;13.390;2022-12-05T06:19:08;67.83;;;30.21;;
56680;SDS011;42558;52.388;13.390;2022-12-05T06:21:37;49.02;;;23.56;;
56680;SDS011;42558;52.388;13.390;2022-12-05T06:24:07;60.04;;;28.12;;
56680;SDS011;42558;52.388;13.390;2022-12-05T06:26:37;50.16;;;25.08;;
56680;SDS011;42558;52.388;13.390;2022-12-05T06:29:08;60.04;;;27.36;;
56680;SDS011;42558;52.388;13.390;2022-12-05T06:31:40;60.61;;;25.84;;
56680;SDS011;42558;52.388;13.390;2022-12-05T06:34:09;53.58;;;26.22;;
56680;SDS011;42558;52.388;13.390;2022-12-05T06:36:39;57.57;;;25.46;;
56680;SDS011;42558;52.388;13.390;2022-12-05T06:39:09;60.42;;;26.79;;
56680;SDS011;42558;52.388;13.390;2022-12-05T06:41:38;63.84;;;28.50;;
56680;SDS011;42558;52.388;13.390;2022-12-05T06:44:08;55.67;;;25.08;;
56680;SDS011;42558;52.388;13.390;2022-12-05T06:46:38;58.90;;;25.46;;
56680;SDS011;42558;52.388;13.390;2022-12-05T06:49:09;50.92;;;24.13;;
56680;SDS011;42558;52.388;13.390;2022-12-05T06:51:38;56.62;;;26.60;;
56680;SDS011;42558;52.388;13.390;2022-12-05T06:54:06;52.25;;;23.94;;
56680;SDS011;42558;52.388;13.390;2022-12-05T06:56:35;59.85;;;27.17;;
56680;SDS011;42558;52.388;13.390;2022-12-05T06:59:03;61.94;;;28.31;;
56680;SDS011;42558;52.388;13.390;2022-12-05T07:01:32;55.86;;;24.13;;
56680;SDS011;42558;52.388;13.390;2022-12-05T07:04:19;55.10;;;26.22;;
56680;SDS011;42558;52.388;13.390;2022-12-05T07:06:52;57.38;;;25.46;;
56680;SDS011;42558;52.388;13.390;2022-12-05T07:09:23;51.49;;;24.70;;
56680;SDS011;42558;52.388;13.390;2022-12-05T07:12:16;48.83;;;23.37;;
56680;SDS011;42558;52.388;13.390;2022-12-05T07:14:47;51.87;;;24.13;;
56680;SDS011;42558;52.388;13.390;2022-12-05T07:17:20;57.00;;;27.17;;
56680;SDS011;42558;52.388;13.390;2022-12-05T07:19:51;49.97;;;26.79;;
56680;SDS011;42558;52.388;13.390;2022-12-05T07:22:22;52.82;;;24.70;;
56680;SDS011;42558;52.388;13.390;2022-12-05T07:24:52;58.33;;;26.41;;
56680;SDS011;42558;52.388;13.390;2022-12-05T07:27:22;52.63;;;26.22;;
56680;SDS011;42558;52.388;13.390;2022-12-05T07:29:56;49.40;;;23.75;;
56680;SDS011;42558;52.388;13.390;2022-12-05T07:32:31;45.03;;;22.80;;
56680;SDS011;42558;52.388;13.390;2022-12-05T07:35:01;45.98;;;20.90;;
56680;SDS011;42558;52.388;13.390;2022-12-05T07:37:29;52.44;;;24.13;;
56680;SDS011;42558;52.388;13.390;2022-12-05T07:39:57;55.86;;;24.51;;
56680;SDS011;42558;52.388;13.390;2022-12-05T07:42:26;48.26;;;22.80;;
56680;SDS011;42558;52.388;13.390;2022-12-05T07:44:54;44.84;;;22.04;;
56680;SDS011;42558;52.388;13.390;2022-12-05T07:47:23;46.17;;;23.37;;
56680;SDS011;42558;52.388;13.390;2022-12-05T07:49:51;48.26;;;23.37;;
56680;SDS011;42558;52.388;13.390;2022-12-05T07:52:20;49.78;;;23.75;;
56680;SDS011;42558;52.388;13.390;2022-12-05T07:54:48;49.40;;;23.94;;
56680;SDS011;42558;52.388;13.390;2022-12-05T07:57:16;45.41;;;24.13;;
56680;SDS011;42558;52.388;13.390;2022-12-05T07:59:45;46.17;;;22.61;;
56680;SDS011;42558;52.388;13.390;2022-12-05T08:02:13;47.88;;;22.99;;
56680;SDS011;42558;52.388;13.390;2022-12-05T08:04:42;54.72;;;25.08;;
56680;SDS011;42558;52.388;13.390;2022-12-05T08:07:10;51.49;;;23.75;;
56680;SDS011;42558;52.388;13.390;2022-12-05T08:09:39;44.08;;;22.42;;
56680;SDS011;42558;52.388;13.390;2022-12-05T08:12:08;55.29;;;25.08;;
56680;SDS011;42558;52.388;13.390;2022-12-05T08:14:38;45.22;;;20.71;;
56680;SDS011;42558;52.388;13.390;2022-12-05T08:17:07;48.26;;;24.13;;
56680;SDS011;42558;52.388;13.390;2022-12-05T08:19:35;51.68;;;23.56;;
56680;SDS011;42558;52.388;13.390;2022-12-05T08:22:04;52.44;;;24.89;;
56680;SDS011;42558;52.388;13.390;2022-12-05T08:24:32;48.45;;;24.13;;
56680;SDS011;42558;52.388;13.390;2022-12-05T08:27:01;49.97;;;24.13;;
56680;SDS011;42558;52.388;13.390;2022-12-05T08:29:33;49.59;;;23.75;;
56680;SDS011;42558;52.388;13.390;2022-12-05T08:32:03;44.08;;;22.42;;
56680;SDS011;42558;52.388;13.390;2022-12-05T08:34:33;43.70;;;20.52;;
56680;SDS011;42558;52.388;13.390;2022-12-05T08:37:03;52.25;;;25.46;;
56680;SDS011;42558;52.388;13.390;2022-12-05T08:39:33;49.97;;;23.75;;
56680;SDS011;42558;52.388;13.390;2022-12-05T08:42:07;49.21;;;23.75;;
56680;SDS011;42558;52.388;13.390;2022-12-05T08:44:40;45.60;;;23.56;;
56680;SDS011;42558;52.388;13.390;2022-12-05T08:47:10;52.25;;;24.13;;
56680;SDS011;42558;52.388;13.390;2022-12-05T08:49:39;53.39;;;24.51;;
56680;SDS011;42558;52.388;13.390;2022-12-05T08:52:09;46.17;;;23.18;;
56680;SDS011;42558;52.388;13.390;2022-12-05T08:54:39;38.57;;;21.85;;
56680;SDS011;42558;52.388;13.390;2022-12-05T08:57:09;52.44;;;23.56;;
56680;SDS011;42558;52.388;13.390;2022-12-05T08:59:38;57.76;;;25.27;;
56680;SDS011;42558;52.388;13.390;2022-12-05T09:02:09;50.54;;;23.56;;
56680;SDS011;42558;52.388;13.390;2022-12-05T09:04:39;50.16;;;22.61;;
56680;SDS011;42558;52.388;13.390;2022-12-05T09:07:09;48.64;;;22.04;;
56680;SDS011;42558;52.388;13.390;2022-12-05T09:09:39;38.00;;;19.76;;
56680;SDS011;42558;52.388;13.390;2022-12-05T09:12:09;31.73;;;17.48;;
56680;SDS011;42558;52.388;13.390;2022-12-05T09:14:42;47.12;;;22.23;;
56680;SDS011;42558;52.388;13.390;2022-12-05T09:17:11;38.57;;;19.76;;
56680;SDS011;42558;52.388;13.390;2022-12-05T09:19:41;44.84;;;19.95;;
56680;SDS011;42558;52.388;13.390;2022-12-05T09:22:11;39.14;;;19.95;;
56680;SDS011;42558;52.388;13.390;2022-12-05T09:24:41;45.60;;;20.52;;
56680;SDS011;42558;52.388;13.390;2022-12-05T09:27:11;44.08;;;22.80;;
56680;SDS011;42558;52.388;13.390;2022-12-05T09:29:41;47.88;;;21.66;;
56680;SDS011;42558;52.388;13.390;2022-12-05T09:32:11;49.78;;;22.99;;
56680;SDS011;42558;52.388;13.390;2022-12-05T09:34:41;45.41;;;21.28;;
56680;SDS011;42558;52.388;13.390;2022-12-05T09:37:11;45.60;;;21.09;;
56680;SDS011;42558;52.388;13.390;2022-12-05T09:40:01;47.50;;;22.61;;
56680;SDS011;42558;52.388;13.390;2022-12-05T09:42:52;45.03;;;22.04;;
56680;SDS011;42558;52.388;13.390;2022-12-05T09:45:34;53.96;;;25.27;;
56680;SDS011;42558;52.388;13.390;2022-12-05T09:48:14;53.96;;;24.70;;
56680;SDS011;42558;52.388;13.390;2022-12-05T09:50:48;54.72;;;24.70;;
56680;SDS011;42558;52.388;13.390;2022-12-05T09:53:35;51.30;;;24.51;;
56680;SDS011;42558;52.388;13.390;2022-12-05T09:58:43;47.69;;;21.85;;
56680;SDS011;42558;52.388;13.390;2022-12-05T10:15:46;57.57;;;25.84;;
56680;SDS011;42558;52.388;13.390;2022-12-05T10:18:45;58.90;;;26.41;;
56680;SDS011;42558;52.388;13.390;2022-12-05T10:21:32;51.11;;;25.65;;
56680;SDS011;42558;52.388;13.390;2022-12-05T10:24:15;55.10;;;26.98;;
56680;SDS011;42558;52.388;13.390;2022-12-05T10:27:13;50.16;;;24.89;;
56680;SDS011;42558;52.388;13.390;2022-12-05T10:30:05;57.00;;;26.60;;
56680;SDS011;42558;52.388;13.390;2022-12-05T10:33:00;53.20;;;27.74;;
56680;SDS011;42558;52.388;13.390;2022-12-05T10:35:39;56.24;;;28.12;;
56680;SDS011;42558;52.388;13.390;2022-12-05T10:38:18;53.58;;;27.74;;
56680;SDS011;42558;52.388;13.390;2022-12-05T10:40:57;56.05;;;26.60;;
56680;SDS011;42558;52.388;13.390;2022-12-05T10:43:33;60.61;;;27.55;;
56680;SDS011;42558;52.388;13.390;2022-12-05T10:46:06;51.11;;;24.70;;
56680;SDS011;42558;52.388;13.390;2022-12-05T10:48:44;61.94;;;27.93;;
56680;SDS011;42558;52.388;13.390;2022-12-05T10:51:16;54.15;;;25.84;;
56680;SDS011;42558;52.388;13.390;2022-12-05T10:53:59;53.96;;;26.22;;
56680;SDS011;42558;52.388;13.390;2022-12-05T10:56:44;60.99;;;26.03;;
56680;SDS011;42558;52.388;13.390;2022-12-05T10:59:18;69.35;;;31.73;;
56680;SDS011;42558;52.388;13.390;2022-12-05T11:01:53;63.84;;;31.16;;
56680;SDS011;42558;52.388;13.390;2022-12-05T11:04:41;66.50;;;29.83;;
56680;SDS011;42558;52.388;13.390;2022-12-05T11:10:00;57.00;;;28.31;;
56680;SDS011;42558;52.388;13.390;2022-12-05T11:15:20;58.33;;;29.64;;
56680;SDS011;42558;52.388;13.390;2022-12-05T11:17:55;66.12;;;28.69;;
56680;SDS011;42558;52.388;13.390;2022-12-05T11:22:55;60.80;;;29.07;;
56680;SDS011;42558;52.388;13.390;2022-12-05T11:27:59;57.76;;;27.93;;
56680;SDS011;42558;52.388;13.390;2022-12-05T11:31:17;53.77;;;26.22;;
56680;SDS011;42558;52.388;13.390;2022-12-05T11:34:24;60.80;;;27.93;;
56680;SDS011;42558;52.388;13.390;2022-12-05T11:37:02;57.57;;;25.46;;
56680;SDS011;42558;52.388;13.390;2022-12-05T11:39:39;62.13;;;28.12;;
56680;SDS011;42558;52.388;13.390;2022-12-05T11:42:18;60.80;;;28.69;;
56680;SDS011;42558;52.388;13.390;2022-12-05T11:45:30;68.97;;;30.02;;
56680;SDS011;42558;52.388;13.390;2022-12-05T11:58:03;50.73;;;24.51;;
56680;SDS011;42558;52.388;13.390;2022-12-05T12:07:29;69.54;;;32.30;;
56680;SDS011;42558;52.388;13.390;2022-12-05T12:16:29;63.46;;;30.21;;
56680;SDS011;42558;52.388;13.390;2022-12-05T12:30:25;63.46;;;30.02;;
56680;SDS011;42558;52.388;13.390;2022-12-05T12:33:32;78.09;;;33.44;;
56680;SDS011;42558;52.388;13.390;2022-12-05T12:39:08;56.05;;;26.41;;
56680;SDS011;42558;52.388;13.390;2022-12-05T12:42:24;66.12;;;29.45;;
56680;SDS011;42558;52.388;13.390;2022-12-05T12:45:41;57.19;;;28.50;;
56680;SDS011;42558;52.388;13.390;2022-12-05T12:48:54;58.52;;;25.08;;
56680;SDS011;42558;52.388;13.390;2022-12-05T12:51:33;72.96;;;33.25;;
56680;SDS011;42558;52.388;13.390;2022-12-05T12:57:28;78.85;;;32.11;;
56680;SDS011;42558;52.388;13.390;2022-12-05T13:05:49;61.94;;;28.31;;
56680;SDS011;42558;52.388;13.390;2022-12-05T13:11:35;65.17;;;28.88;;
56680;SDS011;42558;52.388;13.390;2022-12-05T13:14:11;60.80;;;27.36;;
56680;SDS011;42558;52.388;13.390;2022-12-05T13:16:47;76.95;;;32.49;;
56680;SDS011;42558;52.388;13.390;2022-12-05T13:19:26;87.40;;;34.39;;
56680;SDS011;42558;52.388;13.390;2022-12-05T13:22:06;68.97;;;30.59;;
56680;SDS011;42558;52.388;13.390;2022-12-05T13:24:37;68.02;;;31.16;;
56680;SDS011;42558;52.388;13.390;2022-12-05T13:27:13;67.64;;;31.35;;
56680;SDS011;42558;52.388;13.390;2022-12-05T13:29:57;73.15;;;30.97;;
56680;SDS011;42558;52.388;13.390;2022-12-05T13:32:32;73.34;;;32.87;;
56680;SDS011;42558;52.388;13.390;2022-12-05T13:35:18;76.19;;;33.63;;
56680;SDS011;42558;52.388;13.390;2022-12-05T13:38:33;69.92;;;30.21;;
56680;SDS011;42558;52.388;13.390;2022-12-05T13:41:44;74.29;;;30.40;;
56680;SDS011;42558;52.388;13.390;2022-12-05T13:44:51;72.77;;;30.40;;
56680;SDS011;42558;52.388;13.390;2022-12-05T13:50:38;78.28;;;33.25;;
56680;SDS011;42558;52.388;13.390;2022-12-05T13:58:46;81.70;;;31.73;;
56680;SDS011;42558;52.388;13.390;2022-12-05T14:04:00;76.76;;;30.40;;
56680;SDS011;42558;52.388;13.390;2022-12-05T14:09:30;75.81;;;32.11;;
56680;SDS011;42558;52.388;13.390;2022-12-05T14:17:27;88.35;;;35.15;;
56680;SDS011;42558;52.388;13.390;2022-12-05T14:32:00;83.22;;;32.30;;
56680;SDS011;42558;52.388;13.390;2022-12-05T14:34:57;100.70;;;38.95;;
56680;SDS011;42558;52.388;13.390;2022-12-05T14:40:31;126.35;;;45.41;;
56680;SDS011;42558;52.388;13.390;2022-12-05T14:43:28;125.59;;;46.55;;
56680;SDS011;42558;52.388;13.390;2022-12-05T14:46:07;127.49;;;48.26;;
56680;SDS011;42558;52.388;13.390;2022-12-05T14:48:48;111.15;;;45.60;;
56680;SDS011;42558;52.388;13.390;2022-12-05T14:54:27;99.56;;;43.32;;
56680;SDS011;42558;52.388;13.390;2022-12-05T14:57:10;98.23;;;41.04;;
56680;SDS011;42558;52.388;13.390;2022-12-05T15:00:00;98.80;;;40.85;;
56680;SDS011;42558;52.388;13.390;2022-12-05T15:02:43;97.09;;;40.28;;
56680;SDS011;42558;52.388;13.390;2022-12-05T15:05:28;93.29;;;38.38;;
56680;SDS011;42558;52.388;13.390;2022-12-05T15:08:02;90.25;;;37.05;;
56680;SDS011;42558;52.388;13.390;2022-12-05T15:10:37;99.18;;;38.00;;
56680;SDS011;42558;52.388;13.390;2022-12-05T15:13:14;99.37;;;40.47;;
56680;SDS011;42558;52.388;13.390;2022-12-05T15:16:12;92.53;;;40.28;;
56680;SDS011;42558;52.388;13.390;2022-12-05T15:18:49;91.20;;;36.67;;
56680;SDS011;42558;52.388;13.390;2022-12-05T15:21:52;89.87;;;38.76;;
56680;SDS011;42558;52.388;13.390;2022-12-05T15:24:24;99.56;;;38.57;;
56680;SDS011;42558;52.388;13.390;2022-12-05T15:26:56;95.57;;;40.66;;
56680;SDS011;42558;52.388;13.390;2022-12-05T15:29:27;101.08;;;37.81;;
56680;SDS011;42558;52.388;13.390;2022-12-05T15:34:56;93.48;;;38.57;;
56680;SDS011;42558;52.388;13.390;2022-12-05T15:38:01;89.49;;;36.48;;
56680;SDS011;42558;52.388;13.390;2022-12-05T15:40:44;94.81;;;38.00;;
56680;SDS011;42558;52.388;13.390;2022-12-05T15:43:30;92.15;;;38.95;;
56680;SDS011;42558;52.388;13.390;2022-12-05T15:46:21;98.04;;;39.71;;
56680;SDS011;42558;52.388;13.390;2022-12-05T15:48:55;89.87;;;35.91;;
56680;SDS011;42558;52.388;13.390;2022-12-05T15:51:35;86.64;;;37.05;;
56680;SDS011;42558;52.388;13.390;2022-12-05T15:54:14;76.95;;;34.01;;
56680;SDS011;42558;52.388;13.390;2022-12-05T15:59:41;91.20;;;37.81;;
56680;SDS011;42558;52.388;13.390;2022-12-05T16:02:39;89.87;;;36.29;;
56680;SDS011;42558;52.388;13.390;2022-12-05T16:05:21;81.89;;;37.62;;
56680;SDS011;42558;52.388;13.390;2022-12-05T16:07:50;87.78;;;35.34;;
56680;SDS011;42558;52.388;13.390;2022-12-05T16:10:22;80.94;;;35.72;;
56680;SDS011;42558;52.388;13.390;2022-12-05T16:13:11;97.85;;;38.57;;
56680;SDS011;42558;52.388;13.390;2022-12-05T16:15:48;89.11;;;37.62;;
56680;SDS011;42558;52.388;13.390;2022-12-05T16:18:28;83.60;;;36.10;;
56680;SDS011;42558;52.388;13.390;2022-12-05T16:20:59;83.60;;;34.58;;
56680;SDS011;42558;52.388;13.390;2022-12-05T16:23:32;93.67;;;38.57;;
56680;SDS011;42558;52.388;13.390;2022-12-05T16:26:28;87.21;;;37.43;;
56680;SDS011;42558;52.388;13.390;2022-12-05T16:29:00;88.35;;;37.24;;
56680;SDS011;42558;52.388;13.390;2022-12-05T16:31:31;82.84;;;37.62;;
56680;SDS011;42558;52.388;13.390;2022-12-05T16:34:05;84.93;;;37.81;;
56680;SDS011;42558;52.388;13.390;2022-12-05T16:36:45;102.03;;;37.05;;
56680;SDS011;42558;52.388;13.390;2022-12-05T16:39:19;95.00;;;36.48;;
56680;SDS011;42558;52.388;13.390;2022-12-05T16:41:49;93.29;;;38.57;;
56680;SDS011;42558;52.388;13.390;2022-12-05T16:46:56;86.07;;;36.86;;
56680;SDS011;42558;52.388;13.390;2022-12-05T16:54:36;91.58;;;39.71;;
56680;SDS011;42558;52.388;13.390;2022-12-05T16:57:11;84.74;;;37.43;;
56680;SDS011;42558;52.388;13.390;2022-12-05T16:59:42;95.38;;;38.95;;
56680;SDS011;42558;52.388;13.390;2022-12-05T17:02:18;92.15;;;38.95;;
56680;SDS011;42558;52.388;13.390;2022-12-05T17:04:45;95.57;;;38.19;;
56680;SDS011;42558;52.388;13.390;2022-12-05T17:07:14;98.04;;;41.80;;
56680;SDS011;42558;52.388;13.390;2022-12-05T17:09:42;97.47;;;42.75;;
56680;SDS011;42558;52.388;13.390;2022-12-05T17:12:18;102.03;;;41.04;;
56680;SDS011;42558;52.388;13.390;2022-12-05T17:14:51;97.09;;;41.61;;
56680;SDS011;42558;52.388;13.390;2022-12-05T17:17:21;94.24;;;40.47;;
56680;SDS011;42558;52.388;13.390;2022-12-05T17:19:51;95.57;;;40.47;;
56680;SDS011;42558;52.388;13.390;2022-12-05T17:22:21;85.50;;;39.33;;
56680;SDS011;42558;52.388;13.390;2022-12-05T17:24:51;88.92;;;37.43;;
56680;SDS011;42558;52.388;13.390;2022-12-05T17:27:23;95.38;;;40.66;;
56680;SDS011;42558;52.388;13.390;2022-12-05T17:29:52;98.99;;;38.57;;
56680;SDS011;42558;52.388;13.390;2022-12-05T17:32:22;88.73;;;39.33;;
56680;SDS011;42558;52.388;13.390;2022-12-05T17:39:11;84.74;;;35.15;;
56680;SDS011;42558;52.388;13.390;2022-12-05T17:41:41;88.35;;;36.29;;
56680;SDS011;42558;52.388;13.390;2022-12-05T17:44:13;77.14;;;36.48;;
56680;SDS011;42558;52.388;13.390;2022-12-05T17:46:43;87.02;;;37.81;;
56680;SDS011;42558;52.388;13.390;2022-12-05T17:49:14;79.61;;;33.63;;